Terminal Aerodrome Forecast
Issued by NWS Omaha/Valley, NE

Home | Current Version | Previous Version | Graphics & Text | Print | Product List | Glossary On
Versions: 1 2 3 4 5 6 7 8 9 10 11 12 13 14 15 16 17 18 19 20 21 22 23 24 25 26 27 28 29 30 31 32 33
000
FTUS43 KOAX 020520
TAFOFK
TAF
KOFK 020520Z 0206/0306 20007KT P6SM SCT120
     FM021400 25010KT P6SM SCT100
     FM022100 33012KT P6SM SCT050 SCT100
     FM030100 03005KT P6SM SCT100=

USA.gov is the U.S. government's official web portal to all federal, state and local government web resources and services.